• Join FlightAware (Why Join?)
  • Login
  • US Flag 
04:17AM EDT


 

Airport Tracker/Info


-or-


 

Live Flight TrackerFlight Track Log ✈ WIG7417 ✈ 24-Jul-2013 ✈ KPBG - KSYR

Flight Track Log - Related Links

Times and Time Zones

All times are in EDT time to prevent confusion due to time zone crossing. See the WIG7417 flight status page for this flight to view local times or setup timezone preferences in your user account.

Time Position Orientation Groundspeed Altitude Reporting Facility
EDT Latitude Longitude Course Direction KTS MPH feet Rate Location/Type
07:37PM 44.5210 -73.6748 235° Southwest  Level FlightAware Approximate
07:37PM 44.6528 -73.6511 232° Southwest 138 159 6,100  Level Boston Center
07:38PM 44.5022 -73.7124 235° Southwest  Level FlightAware Approximate
07:38PM 44.6275 -73.6942 230° Southwest 143 165 6,900  Level Boston Center
07:39PM 44.4834 -73.7500 235° Southwest  Level FlightAware Approximate
07:39PM 44.6019 -73.7344 228° Southwest 143 165 7,700  Level Boston Center
07:40PM 44.4646 -73.7876 235° Southwest  Level FlightAware Approximate
07:40PM 44.5722 -73.7836 230° Southwest 143 165 8,700  Level Boston Center
07:41PM 44.4449 -73.8243 227° Southwest  Level FlightAware Approximate
07:41PM 44.5467 -73.8267 230° Southwest 148 170 9,400  Level Boston Center
07:42PM 44.4226 -73.8578 227° Southwest  Level FlightAware Approximate
07:42PM 44.5211 -73.8697 230° Southwest 148 170 10,000  Level Boston Center
07:43PM 44.3978 -73.8874 232° Southwest  Level FlightAware Approximate
07:43PM 44.4914 -73.9156 228° Southwest 158 182 10,000  Level Boston Center
07:44PM 44.4681 -73.9528 229° Southwest 158 182 10,000  Level Boston Center
07:45PM 44.4319 -74.0158 231° Southwest 163 188 10,000  Level Boston Center
07:46PM 44.4042 -74.0644 231° Southwest 163 188 10,000  Level Boston Center
07:47PM 44.3742 -74.1100 227° Southwest 163 188 10,000 -60 Level Boston Center
07:48PM 44.3464 -74.1528 228° Southwest 163 188 9,900 -60 Descending Boston Center
07:49PM 44.3144 -74.2014 227° Southwest 163 188 9,900  Level Boston Center
07:50PM 44.2889 -74.2497 234° Southwest 163 188 9,900  Level Boston Center
07:51PM 44.2567 -74.2981 227° Southwest 163 188 9,900  Level Boston Center
07:52PM 44.2267 -74.3464 229° Southwest 163 188 9,900  Level Boston Center
07:53PM 44.1969 -74.3917 228° Southwest 163 188 9,900  Level Boston Center
07:54PM 44.1689 -74.4400 231° Southwest 163 188 9,900  Level Boston Center
07:55PM 44.1411 -74.4883 231° Southwest 163 188 9,900  Level Boston Center
07:56PM 44.1108 -74.5364 229° Southwest 163 188 9,900  Level Boston Center
07:57PM 44.0808 -74.5844 229° Southwest 163 188 9,900  Level Boston Center
07:58PM 44.0531 -74.6297 230° Southwest 163 188 9,900  Level Boston Center
07:59PM 44.0183 -74.6892 231° Southwest 163 188 9,900  Level Boston Center
08:00PM 43.9864 -74.7342 225° Southwest 163 188 10,000  Climbing Boston Center
08:01PM 43.9583 -74.7819 231° Southwest 163 188 10,000  Level Boston Center
08:02PM 43.9281 -74.8300 229° Southwest 163 188 10,000 -60 Level Boston Center
08:03PM 43.8981 -74.8747 227° Southwest 163 188 9,900  Descending Boston Center
08:04PM 43.8697 -74.9283 234° Southwest 163 188 10,000  Climbing Boston Center
08:05PM 43.8417 -74.9733 229° Southwest 163 188 10,000  Level Boston Center
08:06PM 43.8200 -75.0042 226° Southwest 161 185 10,000  Level Boston Center
08:07PM 43.7919 -75.0489 229° Southwest 163 188 10,000  Level Boston Center
08:08PM 43.7575 -75.1050 230° Southwest 170 196 10,100  Climbing Boston Center
08:09PM 43.7292 -75.1525 230° Southwest 163 188 10,100  Level Boston Center
08:10PM 43.6989 -75.1969 227° Southwest 161 185 10,100  Level Boston Center
08:11PM 43.6708 -75.2417 229° Southwest 162 186 10,100  Level Boston Center
08:12PM 43.6381 -75.2947 230° Southwest 163 188 10,100 -120 Level Boston Center
08:13PM 43.6339 -75.3003 224° Southwest 163 188 10,000 -120 Descending Boston Center
08:14PM 43.5989 -75.3589 231° Southwest 163 188 10,000  Level Boston Center
08:15PM 43.5686 -75.4061 229° Southwest 163 188 10,000  Level Boston Center
08:16PM 43.5383 -75.4533 229° Southwest 163 188 10,000  Level Boston Center
08:17PM 43.4883 -75.5281 227° Southwest 163 188 10,100  Climbing Boston Center
08:18PM 43.4772 -75.5475 232° Southwest 163 188 10,000 -120 Descending Boston Center
08:19PM 43.4489 -75.5947 230° Southwest 163 188 10,000 -240 Level Boston Center
08:20PM 43.4142 -75.6472 228° Southwest 163 188 9,600 -480 Descending Boston Center
08:20PM 43.3922 -75.6833 230° Southwest 181 208 9,300 -660 Descending Boston Center
08:21PM 43.3553 -75.7328 224° Southwest 193 222 8,600 -660 Descending Boston Center
08:22PM 43.3206 -75.7881 229° Southwest 189 217 8,000 -900 Descending Boston Center
08:23PM 43.2856 -75.8431 229° Southwest 190 219 6,900 -1,200 Descending Boston Center
08:24PM 43.2483 -75.9008 229° Southwest 188 216 5,700 -1,200 Descending Boston Center
08:25PM 43.2133 -75.9503 226° Southwest 183 211 4,500 -1,140 Descending Boston Center
08:26PM 43.1825 -76.0056 233° Southwest 183 211 3,500 -1,080 Descending Boston Center
08:27PM 43.1536 -76.0606 234° Southwest 178 205 2,400 -840 Descending Boston Center
08:28PM 43.1375 -76.1081 245° Southwest 129 148 1,900 -480 Descending Boston Center
08:29PM 43.1317 -76.1589 261° West 120 138 1,500 -420 Descending Boston Center
08:31PM 43.1034 -76.1063 126° Southeast  Level FlightAware Approximate
08:38PM 43.1000 -76.1000 236° Southwest  Level FlightAware Approximate
08:39PM 43.1112 -76.1063 236° Southwest  Level Estimated
08:40PM 43.1112 -76.1063 236° Southwest  Level Estimated